Time;durP1;ratioP1;P1;durP2;ratioP2;P2;SDS_P1;SDS_P2;PMS_P1;PMS_P2;Temp;Humidity;BMP_temperature;BMP_pressure;BME280_temperature;BME280_humidity;BME280_pressure;Samples;Min_cycle;Max_cycle;Signal;HPM_P1;HPM_P2
2022/03/25 00:00:19;;;;;;;;;;;12.70;53.70;;;;;;5089724;28;19912;-74
2022/03/25 00:02:45;;;;;;;;;;;12.60;53.70;;;;;;5089514;28;19927;-74
2022/03/25 00:05:11;;;;;;;;;;;12.50;53.80;;;;;;5089333;28;20017;-74
2022/03/25 00:07:37;;;;;;;;;;;12.50;54.10;;;;;;5088199;28;20460;-74
2022/03/25 00:10:04;;;;;;;;;;;12.40;54.00;;;;;;5089432;28;20328;-74
2022/03/25 00:12:30;;;;;;;;;;;12.40;54.30;;;;;;5089410;28;19919;-74
2022/03/25 00:14:55;;;;;;;;;;;12.30;54.50;;;;;;5089388;28;19916;-74
2022/03/25 00:17:21;;;;;;;;;;;12.20;54.70;;;;;;5089360;28;19921;-74
2022/03/25 00:19:46;;;;;;;;;;;12.10;54.60;;;;;;5089175;28;19908;-74
2022/03/25 00:22:12;;;;;;;;;;;12.10;54.60;;;;;;5089274;28;19912;-74
2022/03/25 00:24:37;;;;;;;;;;;12.00;54.60;;;;;;5089140;28;19916;-74
2022/03/25 00:27:04;;;;;;;;;;;12.00;54.50;;;;;;5089474;28;19930;-74
2022/03/25 00:29:29;;;;;;;;;;;12.00;54.50;;;;;;5089150;28;19916;-74
2022/03/25 00:31:55;;;;;;;;;;;12.00;54.50;;;;;;5089171;28;19924;-74
2022/03/25 00:34:20;;;;;;;;;;;12.00;54.40;;;;;;5089534;28;20310;-74
2022/03/25 00:36:46;;;;;;;;;;;11.90;54.40;;;;;;5070045;28;20041;-74
2022/03/25 00:39:12;;;;;;;;;;;11.90;54.50;;;;;;5087639;28;19923;-74
2022/03/25 00:41:37;;;;;;;;;;;11.90;54.50;;;;;;5088803;28;19935;-74
2022/03/25 00:44:07;;;;;;;;;;;11.90;54.50;;;;;;5087621;28;19908;-74
2022/03/25 00:46:35;;;;;;;;;;;11.90;54.40;;;;;;5088967;28;19908;-74
2022/03/25 00:49:01;;;;;;;;;;;11.90;54.40;;;;;;5088935;28;19908;-74
2022/03/25 00:51:27;;;;;;;;;;;11.90;54.40;;;;;;5087542;28;19913;-74
2022/03/25 00:53:52;;;;;;;;;;;11.90;54.40;;;;;;5088737;28;19908;-74
2022/03/25 00:56:18;;;;;;;;;;;11.80;54.40;;;;;;5088691;28;19936;-74
2022/03/25 00:58:44;;;;;;;;;;;11.80;54.40;;;;;;5088751;28;19926;-74
2022/03/25 01:01:10;;;;;;;;;;;11.80;54.40;;;;;;5088733;28;19947;-74
2022/03/25 01:03:35;;;;;;;;;;;11.80;54.40;;;;;;5088580;28;19918;-74
2022/03/25 01:06:01;;;;;;;;;;;11.80;54.50;;;;;;5088605;28;20031;-74
2022/03/25 01:08:27;;;;;;;;;;;11.90;54.50;;;;;;5088578;28;19966;-74
2022/03/25 01:10:53;;;;;;;;;;;11.90;54.40;;;;;;5087070;28;19907;-74
2022/03/25 01:13:18;;;;;;;;;;;11.80;54.30;;;;;;5088516;28;19908;-74
2022/03/25 01:15:44;;;;;;;;;;;11.80;54.30;;;;;;5088434;28;20069;-74
2022/03/25 01:18:10;;;;;;;;;;;11.70;54.30;;;;;;5087070;28;19912;-74
2022/03/25 01:20:35;;;;;;;;;;;11.70;54.50;;;;;;5088266;28;19964;-74
2022/03/25 01:23:01;;;;;;;;;;;11.50;54.50;;;;;;5088249;28;20011;-74
2022/03/25 01:25:27;;;;;;;;;;;11.50;54.60;;;;;;5087156;28;19913;-74
2022/03/25 01:27:52;;;;;;;;;;;11.40;54.60;;;;;;5088265;28;19908;-74
2022/03/25 01:30:18;;;;;;;;;;;11.40;54.70;;;;;;5088179;28;19935;-74
2022/03/25 01:32:43;;;;;;;;;;;11.40;54.80;;;;;;5088190;28;19913;-74
2022/03/25 01:35:09;;;;;;;;;;;11.40;54.80;;;;;;5088153;28;19919;-74
2022/03/25 01:37:36;;;;;;;;;;;11.40;54.80;;;;;;5086654;28;19969;-74
2022/03/25 01:40:01;;;;;;;;;;;11.50;54.80;;;;;;5087856;28;19919;-74
2022/03/25 01:42:31;;;;;;;;;;;11.50;54.80;;;;;;5088087;28;20374;-74
2022/03/25 01:44:57;;;;;;;;;;;11.50;54.80;;;;;;5088133;28;19940;-74
2022/03/25 01:47:26;;;;;;;;;;;11.50;54.70;;;;;;5088117;28;19947;-74
2022/03/25 01:49:52;;;;;;;;;;;11.50;54.70;;;;;;5092210;28;19908;-74
2022/03/25 01:52:17;;;;;;;;;;;11.50;54.80;;;;;;5092194;28;19916;-74
2022/03/25 01:54:43;;;;;;;;;;;11.50;54.70;;;;;;5092161;28;19908;-74
2022/03/25 01:57:09;;;;;;;;;;;11.60;54.80;;;;;;5092426;28;19950;-74
2022/03/25 01:59:35;;;;;;;;;;;11.60;55.00;;;;;;5092077;28;19916;-74
2022/03/25 02:02:01;;;;;;;;;;;11.60;54.80;;;;;;5092025;28;19913;-74
2022/03/25 02:04:27;;;;;;;;;;;11.60;54.70;;;;;;5073764;28;19944;-74
2022/03/25 02:06:53;;;;;;;;;;;11.60;54.60;;;;;;5092017;28;19952;-74
2022/03/25 02:09:19;;;;;;;;;;;11.60;54.60;;;;;;5091955;28;19908;-74
2022/03/25 02:11:44;;;;;;;;;;;11.50;54.70;;;;;;5091916;28;20310;-74
2022/03/25 02:14:11;;;;;;;;;;;11.50;54.80;;;;;;5090936;28;20412;-74
2022/03/25 02:16:37;;;;;;;;;;;11.40;54.90;;;;;;5091893;28;20243;-74
2022/03/25 02:19:03;;;;;;;;;;;11.30;55.00;;;;;;5091731;28;19908;-74
2022/03/25 02:21:29;;;;;;;;;;;11.30;55.00;;;;;;5091708;28;20291;-74
2022/03/25 02:23:55;;;;;;;;;;;11.30;55.00;;;;;;5091835;28;19912;-74
2022/03/25 02:26:22;;;;;;;;;;;11.20;55.10;;;;;;5091737;28;19961;-74
2022/03/25 02:28:47;;;;;;;;;;;11.20;55.20;;;;;;5091620;28;19915;-74
2022/03/25 02:31:14;;;;;;;;;;;11.10;55.20;;;;;;5090271;28;19912;-74
2022/03/25 02:33:39;;;;;;;;;;;11.10;55.20;;;;;;5091561;28;20309;-74
2022/03/25 02:36:08;;;;;;;;;;;11.20;55.30;;;;;;5091580;28;19917;-74
2022/03/25 02:38:33;;;;;;;;;;;11.20;55.30;;;;;;5090252;28;19923;-74
2022/03/25 02:40:59;;;;;;;;;;;11.30;55.30;;;;;;5091273;28;19923;-74
2022/03/25 02:43:24;;;;;;;;;;;11.40;55.40;;;;;;5091280;28;19916;-74
2022/03/25 02:45:50;;;;;;;;;;;11.50;55.20;;;;;;5091203;28;20328;-74
2022/03/25 02:48:15;;;;;;;;;;;11.70;55.20;;;;;;5091236;28;19919;-74
2022/03/25 02:50:41;;;;;;;;;;;11.80;55.00;;;;;;5091040;28;20019;-74
2022/03/25 02:53:07;;;;;;;;;;;11.90;55.00;;;;;;5091479;28;20358;-74
2022/03/25 02:55:32;;;;;;;;;;;11.90;55.00;;;;;;5090938;28;19969;-74
2022/03/25 02:57:58;;;;;;;;;;;12.00;55.00;;;;;;5091172;28;19915;-74
2022/03/25 03:00:26;;;;;;;;;;;12.00;54.90;;;;;;5089735;28;19918;-74
2022/03/25 03:02:52;;;;;;;;;;;12.10;55.00;;;;;;5089604;28;19920;-74
2022/03/25 03:05:18;;;;;;;;;;;12.10;55.20;;;;;;5090843;28;19912;-74
2022/03/25 03:07:45;;;;;;;;;;;12.00;55.10;;;;;;5090830;28;19995;-74
2022/03/25 03:10:11;;;;;;;;;;;12.00;55.10;;;;;;5090929;28;20282;-74
2022/03/25 03:12:37;;;;;;;;;;;12.00;55.20;;;;;;5090694;28;19912;-74
2022/03/25 03:15:03;;;;;;;;;;;11.90;55.40;;;;;;5089421;28;19912;-74
2022/03/25 03:17:29;;;;;;;;;;;11.90;55.40;;;;;;5090579;28;20296;-74
2022/03/25 03:19:55;;;;;;;;;;;11.80;55.50;;;;;;5090640;28;19916;-74
2022/03/25 03:22:21;;;;;;;;;;;11.70;55.60;;;;;;5090591;28;19912;-74
2022/03/25 03:24:46;;;;;;;;;;;11.70;55.90;;;;;;5090557;28;20286;-74
2022/03/25 03:27:12;;;;;;;;;;;11.60;56.70;;;;;;5090437;28;19912;-74
2022/03/25 03:29:38;;;;;;;;;;;11.60;56.20;;;;;;5090366;28;19916;-74
2022/03/25 03:32:04;;;;;;;;;;;11.50;56.30;;;;;;5090497;28;19912;-74
2022/03/25 03:34:30;;;;;;;;;;;11.50;56.20;;;;;;5090277;28;19935;-74
2022/03/25 03:36:56;;;;;;;;;;;11.50;56.20;;;;;;5090359;28;19947;-74
2022/03/25 03:39:21;;;;;;;;;;;11.40;56.10;;;;;;5090175;28;19973;-74
2022/03/25 03:41:47;;;;;;;;;;;11.50;56.10;;;;;;5089967;28;19924;-74
2022/03/25 03:44:13;;;;;;;;;;;11.50;56.10;;;;;;5090172;28;19912;-74
2022/03/25 03:46:38;;;;;;;;;;;11.60;56.20;;;;;;5090161;28;19918;-74
2022/03/25 03:49:04;;;;;;;;;;;11.60;56.20;;;;;;5089991;28;20278;-74
2022/03/25 03:51:29;;;;;;;;;;;11.60;56.20;;;;;;5090026;28;19916;-74
2022/03/25 03:53:55;;;;;;;;;;;11.60;56.20;;;;;;5090014;28;20274;-74
2022/03/25 03:56:22;;;;;;;;;;;11.70;56.30;;;;;;5089920;28;19912;-74
2022/03/25 03:58:47;;;;;;;;;;;11.80;56.20;;;;;;5088246;28;20321;-74
2022/03/25 04:01:13;;;;;;;;;;;11.90;56.20;;;;;;5089645;28;19920;-74
2022/03/25 04:03:38;;;;;;;;;;;11.90;56.10;;;;;;5089682;28;19955;-74
2022/03/25 04:06:05;;;;;;;;;;;12.00;56.00;;;;;;5088447;28;20389;-74
2022/03/25 04:08:31;;;;;;;;;;;12.00;56.00;;;;;;5089755;28;19918;-74
2022/03/25 04:10:56;;;;;;;;;;;12.10;56.00;;;;;;5089393;28;19926;-74
2022/03/25 04:13:22;;;;;;;;;;;12.10;55.90;;;;;;5089580;28;19912;-74
2022/03/25 04:15:48;;;;;;;;;;;12.10;55.90;;;;;;5089701;28;20369;-74
2022/03/25 04:18:13;;;;;;;;;;;12.10;55.90;;;;;;5089577;28;19916;-74
2022/03/25 04:20:39;;;;;;;;;;;12.10;56.20;;;;;;5089416;28;20358;-74
2022/03/25 04:23:05;;;;;;;;;;;12.10;56.10;;;;;;5089537;28;19929;-74
2022/03/25 04:25:30;;;;;;;;;;;12.10;56.10;;;;;;5089530;28;19912;-74
2022/03/25 04:27:57;;;;;;;;;;;12.10;56.00;;;;;;5089354;28;19918;-74
2022/03/25 04:30:26;;;;;;;;;;;12.10;56.10;;;;;;5089176;28;20382;-74
2022/03/25 04:32:52;;;;;;;;;;;12.10;56.20;;;;;;5089248;28;19995;-74
2022/03/25 04:35:18;;;;;;;;;;;12.10;56.70;;;;;;5089064;28;20007;-74
2022/03/25 04:37:44;;;;;;;;;;;12.00;57.10;;;;;;5089150;28;19908;-74
2022/03/25 04:40:11;;;;;;;;;;;11.90;57.40;;;;;;5088866;28;20285;-74
2022/03/25 04:42:37;;;;;;;;;;;11.90;57.80;;;;;;5089306;28;19912;-74
2022/03/25 04:45:03;;;;;;;;;;;11.70;58.00;;;;;;5087767;28;19912;-74
2022/03/25 04:47:28;;;;;;;;;;;11.70;58.10;;;;;;5088903;28;19962;-74
2022/03/25 04:49:54;;;;;;;;;;;11.60;58.30;;;;;;5088707;28;19916;-74
2022/03/25 04:52:19;;;;;;;;;;;11.50;58.00;;;;;;5088806;28;19913;-74
2022/03/25 04:54:45;;;;;;;;;;;11.50;57.90;;;;;;5088872;28;19912;-74
2022/03/25 04:57:10;;;;;;;;;;;11.60;57.80;;;;;;5088714;28;19919;-74
2022/03/25 04:59:36;;;;;;;;;;;11.60;57.80;;;;;;5087279;28;19944;-74
2022/03/25 05:02:02;;;;;;;;;;;11.60;57.90;;;;;;5088450;28;19920;-74
2022/03/25 05:04:28;;;;;;;;;;;11.60;58.10;;;;;;5088469;28;19912;-74
2022/03/25 05:06:53;;;;;;;;;;;11.60;58.20;;;;;;5087191;28;19916;-74
2022/03/25 05:09:19;;;;;;;;;;;11.60;58.20;;;;;;5088434;28;19912;-74
2022/03/25 05:11:45;;;;;;;;;;;11.50;58.20;;;;;;5087497;28;19969;-74
2022/03/25 05:14:10;;;;;;;;;;;11.60;58.20;;;;;;5088523;28;20371;-74
2022/03/25 05:16:36;;;;;;;;;;;11.60;58.20;;;;;;5088591;28;19934;-74
2022/03/25 05:19:02;;;;;;;;;;;11.60;58.10;;;;;;5086928;28;20023;-74
2022/03/25 05:21:27;;;;;;;;;;;11.60;58.00;;;;;;5088486;28;19912;-74
2022/03/25 05:23:53;;;;;;;;;;;11.70;58.10;;;;;;5087760;28;20264;-74
2022/03/25 05:26:20;;;;;;;;;;;11.70;58.00;;;;;;5088299;28;19993;-74
2022/03/25 05:28:45;;;;;;;;;;;11.80;57.90;;;;;;5088305;28;20456;-74
2022/03/25 05:31:11;;;;;;;;;;;11.80;57.80;;;;;;5088146;28;19912;-74
2022/03/25 05:33:37;;;;;;;;;;;11.80;57.90;;;;;;5088174;28;19908;-74
2022/03/25 05:36:03;;;;;;;;;;;11.80;57.90;;;;;;5088202;28;19916;-74
2022/03/25 05:38:30;;;;;;;;;;;11.80;57.90;;;;;;5088102;28;19908;-74
2022/03/25 05:40:56;;;;;;;;;;;11.80;57.80;;;;;;5086499;28;19924;-74
2022/03/25 05:43:21;;;;;;;;;;;11.90;57.80;;;;;;5088021;28;19916;-74
2022/03/25 05:45:47;;;;;;;;;;;11.90;57.70;;;;;;5088516;28;20266;-74
2022/03/25 05:48:12;;;;;;;;;;;11.90;57.80;;;;;;5088060;28;19920;-74
2022/03/25 05:50:38;;;;;;;;;;;11.90;57.80;;;;;;5087934;28;19908;-74
2022/03/25 05:53:05;;;;;;;;;;;11.90;57.70;;;;;;5088001;28;19919;-74
2022/03/25 05:55:31;;;;;;;;;;;11.90;57.60;;;;;;5088420;28;19913;-74
2022/03/25 05:57:57;;;;;;;;;;;11.90;57.50;;;;;;5087911;28;19909;-74
2022/03/25 06:00:23;;;;;;;;;;;12.00;57.50;;;;;;5087884;28;19908;-74
2022/03/25 06:02:48;;;;;;;;;;;12.00;57.50;;;;;;5087802;28;19939;-74
2022/03/25 06:05:14;;;;;;;;;;;12.00;57.50;;;;;;5087972;28;19916;-74
2022/03/25 06:07:44;;;;;;;;;;;11.90;57.50;;;;;;5087924;28;19912;-74
2022/03/25 06:10:10;;;;;;;;;;;11.90;57.60;;;;;;5087739;28;20007;-74
2022/03/25 06:12:37;;;;;;;;;;;11.80;57.60;;;;;;5087805;28;19954;-74
2022/03/25 06:15:03;;;;;;;;;;;11.80;57.70;;;;;;5086501;28;19924;-74
2022/03/25 06:17:29;;;;;;;;;;;11.80;57.70;;;;;;5086350;28;20252;-74
2022/03/25 06:19:54;;;;;;;;;;;11.80;57.70;;;;;;5087696;28;20354;-74
2022/03/25 06:22:20;;;;;;;;;;;11.80;57.70;;;;;;5087684;28;20034;-74
2022/03/25 06:24:45;;;;;;;;;;;11.80;57.70;;;;;;5087792;28;19920;-74
2022/03/25 06:27:11;;;;;;;;;;;11.80;57.70;;;;;;5087331;28;20255;-74
2022/03/25 06:29:38;;;;;;;;;;;11.80;57.60;;;;;;5087548;28;19923;-74
2022/03/25 06:32:07;;;;;;;;;;;11.80;57.70;;;;;;5088005;28;20372;-74
2022/03/25 06:34:33;;;;;;;;;;;11.80;57.80;;;;;;5089299;28;19969;-74
2022/03/25 06:36:59;;;;;;;;;;;11.70;57.80;;;;;;5091428;28;19920;-74
2022/03/25 06:39:24;;;;;;;;;;;11.70;57.80;;;;;;5091434;28;20339;-74
2022/03/25 06:41:50;;;;;;;;;;;11.80;57.80;;;;;;5091185;28;19924;-74
2022/03/25 06:44:16;;;;;;;;;;;11.80;57.70;;;;;;5091339;28;20366;-74
2022/03/25 06:46:42;;;;;;;;;;;11.90;58.10;;;;;;5091466;28;19916;-74
2022/03/25 06:49:07;;;;;;;;;;;11.90;57.50;;;;;;5091029;28;19923;-74
2022/03/25 06:51:33;;;;;;;;;;;11.80;57.50;;;;;;5090964;28;20130;-74
2022/03/25 06:53:59;;;;;;;;;;;11.80;57.60;;;;;;5089532;28;20425;-74
2022/03/25 06:56:24;;;;;;;;;;;11.90;57.70;;;;;;5090965;28;20259;-74
2022/03/25 06:58:50;;;;;;;;;;;11.90;57.60;;;;;;5090442;28;19985;-74
2022/03/25 07:01:16;;;;;;;;;;;12.00;57.60;;;;;;5090694;28;19956;-74
2022/03/25 07:03:42;;;;;;;;;;;12.00;57.60;;;;;;5091261;28;19923;-73
2022/03/25 07:06:08;;;;;;;;;;;12.00;57.70;;;;;;5090764;28;19991;-73
2022/03/25 07:08:34;;;;;;;;;;;12.00;57.70;;;;;;5089542;28;20362;-73
2022/03/25 07:11:00;;;;;;;;;;;12.10;57.70;;;;;;5090705;28;19915;-73
2022/03/25 07:13:26;;;;;;;;;;;12.20;57.60;;;;;;5090568;28;19957;-73
2022/03/25 07:15:52;;;;;;;;;;;12.30;57.50;;;;;;5090676;28;19915;-74
2022/03/25 07:18:18;;;;;;;;;;;12.40;57.50;;;;;;5090713;28;19965;-73
2022/03/25 07:20:44;;;;;;;;;;;12.50;57.50;;;;;;5089167;28;19916;-73
2022/03/25 07:23:09;;;;;;;;;;;12.60;57.50;;;;;;5090404;28;19922;-73
2022/03/25 07:25:35;;;;;;;;;;;12.70;57.50;;;;;;5090130;28;20015;-74
2022/03/25 07:28:00;;;;;;;;;;;12.80;57.60;;;;;;5090062;28;20352;-73
2022/03/25 07:30:26;;;;;;;;;;;12.80;58.00;;;;;;5090174;28;19915;-74
2022/03/25 07:32:51;;;;;;;;;;;12.80;57.60;;;;;;5090437;28;19929;-73
2022/03/25 07:35:17;;;;;;;;;;;12.80;57.80;;;;;;5090999;28;20355;-72
2022/03/25 07:37:43;;;;;;;;;;;12.70;57.80;;;;;;5090612;28;19908;-72
2022/03/25 07:40:12;;;;;;;;;;;12.80;58.10;;;;;;5090637;28;20607;-73
2022/03/25 07:42:39;;;;;;;;;;;12.80;58.20;;;;;;5089150;28;19916;-73
2022/03/25 07:45:08;;;;;;;;;;;12.90;58.20;;;;;;5090773;28;20343;-73
2022/03/25 07:47:38;;;;;;;;;;;13.10;58.30;;;;;;5089777;28;19912;-73
2022/03/25 07:50:04;;;;;;;;;;;13.20;58.20;;;;;;5089908;28;19916;-73
2022/03/25 07:52:29;;;;;;;;;;;13.40;58.20;;;;;;5089695;28;19916;-73
2022/03/25 07:54:56;;;;;;;;;;;13.60;58.10;;;;;;5089573;28;19912;-73
2022/03/25 07:57:21;;;;;;;;;;;13.80;58.00;;;;;;5089285;28;20290;-73
2022/03/25 07:59:47;;;;;;;;;;;13.90;58.00;;;;;;5089823;28;19912;-73
2022/03/25 08:02:12;;;;;;;;;;;14.00;58.00;;;;;;5089289;28;20286;-73
2022/03/25 08:04:38;;;;;;;;;;;14.10;58.00;;;;;;5089530;28;20325;-73
2022/03/25 08:07:03;;;;;;;;;;;14.30;58.00;;;;;;5089094;28;19923;-72
2022/03/25 08:09:29;;;;;;;;;;;14.50;58.00;;;;;;5087717;28;19923;-72
2022/03/25 08:11:55;;;;;;;;;;;14.70;57.90;;;;;;5088939;28;19916;-73
2022/03/25 08:14:21;;;;;;;;;;;14.90;57.80;;;;;;5088964;28;20256;-72
2022/03/25 08:16:47;;;;;;;;;;;15.10;57.60;;;;;;5088897;28;19951;-73
2022/03/25 08:19:12;;;;;;;;;;;15.30;57.50;;;;;;5088909;28;19978;-73
2022/03/25 08:21:38;;;;;;;;;;;15.50;57.40;;;;;;5087362;28;19922;-73
2022/03/25 08:29:32;;;;;;;;;;;16.20;57.30;;;;;;5088867;28;19923;-68
2022/03/25 08:31:57;;;;;;;;;;;16.50;57.20;;;;;;5088204;28;19916;-73
2022/03/25 08:34:23;;;;;;;;;;;16.60;57.20;;;;;;5088603;28;20007;-74
2022/03/25 08:36:49;;;;;;;;;;;16.80;57.80;;;;;;5088599;28;20370;-74
2022/03/25 08:39:16;;;;;;;;;;;17.00;57.30;;;;;;5088412;28;19960;-74
2022/03/25 08:41:42;;;;;;;;;;;17.20;57.90;;;;;;5088089;28;19974;-74
2022/03/25 08:44:07;;;;;;;;;;;17.50;57.40;;;;;;5088073;28;19967;-74
2022/03/25 08:46:34;;;;;;;;;;;18.10;57.80;;;;;;5088365;28;19916;-74
2022/03/25 08:49:00;;;;;;;;;;;18.70;57.60;;;;;;5087904;28;20296;-74
2022/03/25 08:51:26;;;;;;;;;;;19.10;57.30;;;;;;5086587;28;20289;-73
2022/03/25 08:53:52;;;;;;;;;;;19.80;57.50;;;;;;5087537;28;19925;-74
2022/03/25 08:56:18;;;;;;;;;;;20.10;56.70;;;;;;5087668;28;19919;-74
2022/03/25 08:58:44;;;;;;;;;;;19.90;56.50;;;;;;5086275;28;19908;-74
2022/03/25 09:01:10;;;;;;;;;;;19.90;57.10;;;;;;5087414;28;19915;-74
2022/03/25 09:03:35;;;;;;;;;;;19.90;57.20;;;;;;5087430;28;19916;-74
2022/03/25 09:06:01;;;;;;;;;;;19.80;57.40;;;;;;5085383;28;20012;-72
2022/03/25 09:08:26;;;;;;;;;;;19.90;57.90;;;;;;5088024;28;19923;-72
2022/03/25 09:10:53;;;;;;;;;;;20.10;57.30;;;;;;5086424;28;20014;-73
2022/03/25 09:13:19;;;;;;;;;;;20.10;57.10;;;;;;5087540;28;19919;-73
2022/03/25 09:15:45;;;;;;;;;;;20.10;57.20;;;;;;5087761;28;20377;-74
2022/03/25 09:18:10;;;;;;;;;;;20.10;57.30;;;;;;5087910;28;19912;-73
2022/03/25 09:20:36;;;;;;;;;;;20.30;57.20;;;;;;5087451;28;19912;-73
2022/03/25 09:23:02;;;;;;;;;;;20.30;57.40;;;;;;5086354;28;19923;-74
2022/03/25 09:25:27;;;;;;;;;;;20.90;58.20;;;;;;5086457;28;19954;-73
2022/03/25 09:27:53;;;;;;;;;;;21.30;57.30;;;;;;5087902;28;19916;-73
2022/03/25 09:30:18;;;;;;;;;;;21.60;57.30;;;;;;5087667;28;19912;-73
2022/03/25 09:32:44;;;;;;;;;;;22.10;57.10;;;;;;5089211;28;19916;-73
2022/03/25 09:35:10;;;;;;;;;;;22.50;56.80;;;;;;5088928;28;19968;-74
2022/03/25 09:37:36;;;;;;;;;;;23.00;57.00;;;;;;5088132;28;19961;-71
2022/03/25 09:40:05;;;;;;;;;;;23.40;56.60;;;;;;5087028;28;19908;-73
2022/03/25 09:42:32;;;;;;;;;;;23.60;56.30;;;;;;5086969;28;19923;-74
2022/03/25 09:44:59;;;;;;;;;;;23.50;56.20;;;;;;5087450;28;20281;-73
2022/03/25 09:47:25;;;;;;;;;;;23.60;56.40;;;;;;5087435;28;19983;-73
2022/03/25 09:49:51;;;;;;;;;;;23.80;57.00;;;;;;5085853;28;19963;-74
2022/03/25 09:52:18;;;;;;;;;;;24.10;57.40;;;;;;5087203;28;19912;-74
2022/03/25 09:54:44;;;;;;;;;;;24.70;57.70;;;;;;5087231;28;19908;-74
2022/03/25 09:57:09;;;;;;;;;;;25.50;57.40;;;;;;5087450;28;19926;-74
2022/03/25 09:59:35;;;;;;;;;;;25.70;57.30;;;;;;5087482;28;19913;-74
2022/03/25 10:02:00;;;;;;;;;;;26.40;58.30;;;;;;5086594;28;20290;-74
2022/03/25 10:04:42;;;;;;;;;;;27.30;57.80;;;;;;5097404;28;20019;-74
2022/03/25 10:07:15;;;;;;;;;;;28.00;56.70;;;;;;5094037;28;20395;-62
2022/03/25 10:09:40;;;;;;;;;;;28.50;56.60;;;;;;5097111;28;20010;-74
2022/03/25 10:12:18;;;;;;;;;;;29.10;56.70;;;;;;5102092;28;20041;-74
2022/03/25 10:14:46;;;;;;;;;;;29.00;55.80;;;;;;5101293;28;19916;-75
2022/03/25 10:17:11;;;;;;;;;;;28.00;55.80;;;;;;5111172;28;20434;-74
2022/03/25 10:19:46;;;;;;;;;;;27.20;56.40;;;;;;5111062;28;20000;-74
2022/03/25 10:22:15;;;;;;;;;;;26.50;57.10;;;;;;5105503;28;19980;-74
2022/03/25 10:24:43;;;;;;;;;;;26.40;58.00;;;;;;5088886;28;19946;-74
2022/03/25 10:27:10;;;;;;;;;;;26.30;57.50;;;;;;5089636;28;19908;-74
2022/03/25 10:29:35;;;;;;;;;;;25.90;57.70;;;;;;5099530;28;19916;-73
2022/03/25 10:32:05;;;;;;;;;;;25.70;57.50;;;;;;5097418;28;19931;-73
2022/03/25 10:34:31;;;;;;;;;;;25.90;57.90;;;;;;5091201;28;20085;-73
2022/03/25 10:37:07;;;;;;;;;;;26.50;58.10;;;;;;5090912;28;20397;-73
2022/03/25 10:39:33;;;;;;;;;;;27.00;58.30;;;;;;5088609;28;19908;-75
2022/03/25 10:42:03;;;;;;;;;;;27.40;58.10;;;;;;5090488;28;20345;-72
2022/03/25 10:44:51;;;;;;;;;;;27.40;57.80;;;;;;5088360;28;19912;-72
2022/03/25 10:47:17;;;;;;;;;;;27.60;58.00;;;;;;5090426;28;19912;-74
2022/03/25 10:49:44;;;;;;;;;;;27.90;58.10;;;;;;5090658;28;19927;-74
2022/03/25 10:52:32;;;;;;;;;;;28.20;58.30;;;;;;5088201;28;19908;-74
2022/03/25 10:55:14;;;;;;;;;;;28.40;57.80;;;;;;5090332;28;19923;-74
2022/03/25 10:57:50;;;;;;;;;;;28.60;57.50;;;;;;5090441;28;19943;-74
2022/03/25 11:00:16;;;;;;;;;;;28.20;57.50;;;;;;5072511;28;19912;-74
2022/03/25 11:02:42;;;;;;;;;;;28.10;58.10;;;;;;5089266;28;19947;-74
2022/03/25 11:05:09;;;;;;;;;;;28.10;58.40;;;;;;5089869;28;20110;-74
2022/03/25 11:07:36;;;;;;;;;;;28.20;58.60;;;;;;5090651;28;19916;-73
2022/03/25 11:10:02;;;;;;;;;;;28.60;58.70;;;;;;5090565;28;19953;-74
2022/03/25 11:12:27;;;;;;;;;;;28.80;58.00;;;;;;5090136;28;19950;-73
2022/03/25 11:14:53;;;;;;;;;;;28.90;58.20;;;;;;5089217;28;19908;-72
2022/03/25 11:17:20;;;;;;;;;;;29.20;57.70;;;;;;5090369;28;19913;-72
2022/03/25 11:19:46;;;;;;;;;;;29.40;57.00;;;;;;5089756;28;19912;-73
2022/03/25 11:22:12;;;;;;;;;;;29.60;57.60;;;;;;5089231;28;20013;-73
2022/03/25 11:24:45;;;;;;;;;;;30.10;58.00;;;;;;5090346;28;19916;-72
2022/03/25 11:27:21;;;;;;;;;;;30.40;57.20;;;;;;5088692;28;19915;-75
2022/03/25 11:29:48;;;;;;;;;;;30.20;57.40;;;;;;5089866;28;19995;-73
2022/03/25 11:32:15;;;;;;;;;;;30.40;57.80;;;;;;5089810;28;19932;-74
2022/03/25 11:35:00;;;;;;;;;;;30.70;58.00;;;;;;5089524;28;19919;-73
2022/03/25 11:37:30;;;;;;;;;;;31.00;58.20;;;;;;5088864;28;19989;-73
2022/03/25 11:40:25;;;;;;;;;;;31.20;57.90;;;;;;5088411;28;19909;-73
2022/03/25 11:42:52;;;;;;;;;;;31.10;57.80;;;;;;5085715;28;20309;-73
2022/03/25 11:45:20;;;;;;;;;;;31.40;57.90;;;;;;5090140;28;19951;-74
2022/03/25 11:48:07;;;;;;;;;;;31.60;57.30;;;;;;5089680;28;20032;-75
2022/03/25 11:50:37;;;;;;;;;;;31.90;57.10;;;;;;5079470;28;19926;-74
2022/03/25 11:53:12;;;;;;;;;;;32.10;56.70;;;;;;5090092;28;19912;-74
2022/03/25 11:55:54;;;;;;;;;;;31.70;56.90;;;;;;5088315;28;20239;-73
2022/03/25 11:58:20;;;;;;;;;;;31.60;57.20;;;;;;5086517;28;19921;-74
2022/03/25 12:00:48;;;;;;;;;;;31.90;57.20;;;;;;5087888;28;19964;-74
2022/03/25 12:03:15;;;;;;;;;;;32.00;57.50;;;;;;5089183;28;19920;-73
2022/03/25 12:05:56;;;;;;;;;;;31.90;57.10;;;;;;5089491;28;19919;-73
2022/03/25 12:08:31;;;;;;;;;;;31.80;57.40;;;;;;5087946;28;20038;-73
2022/03/25 12:10:57;;;;;;;;;;;31.80;57.50;;;;;;5087203;28;19908;-73
2022/03/25 12:13:43;;;;;;;;;;;31.40;57.20;;;;;;5086731;28;20254;-73
2022/03/25 12:16:08;;;;;;;;;;;31.10;57.50;;;;;;5087083;28;19915;-74
2022/03/25 12:18:44;;;;;;;;;;;30.90;57.80;;;;;;5089585;28;19916;-74
2022/03/25 12:21:11;;;;;;;;;;;30.70;57.80;;;;;;5087584;28;19915;-75
2022/03/25 12:23:37;;;;;;;;;;;30.70;57.90;;;;;;5088834;28;19919;-75
2022/03/25 12:26:03;;;;;;;;;;;30.80;56.90;;;;;;5087444;28;20257;-75
2022/03/25 12:28:30;;;;;;;;;;;30.90;56.30;;;;;;5088877;28;19913;-70
2022/03/25 12:31:01;;;;;;;;;;;30.80;56.80;;;;;;5088742;28;19969;-76
2022/03/25 12:33:26;;;;;;;;;;;30.50;56.40;;;;;;5086278;28;19966;-75
2022/03/25 12:35:52;;;;;;;;;;;30.50;56.50;;;;;;5087948;28;20266;-74
2022/03/25 12:38:18;;;;;;;;;;;30.60;55.40;;;;;;5088651;28;20023;-74
2022/03/25 12:40:45;;;;;;;;;;;30.80;55.40;;;;;;5085561;28;19927;-74
2022/03/25 12:43:11;;;;;;;;;;;30.90;55.10;;;;;;5088908;28;20243;-74
2022/03/25 12:45:39;;;;;;;;;;;30.80;54.80;;;;;;5088747;28;20008;-74
2022/03/25 12:48:11;;;;;;;;;;;30.80;54.80;;;;;;5085943;28;19908;-73
2022/03/25 12:50:38;;;;;;;;;;;30.40;55.10;;;;;;5088345;28;20285;-74
2022/03/25 12:53:05;;;;;;;;;;;30.40;55.50;;;;;;5086180;28;19943;-73
2022/03/25 12:55:32;;;;;;;;;;;30.70;55.40;;;;;;5088496;28;20516;-74
2022/03/25 12:58:11;;;;;;;;;;;31.00;54.70;;;;;;5088188;28;19916;-76
2022/03/25 13:00:36;;;;;;;;;;;30.80;54.10;;;;;;5085656;28;19915;-73
2022/03/25 13:03:02;;;;;;;;;;;30.50;54.00;;;;;;5087610;28;19916;-73
2022/03/25 13:05:28;;;;;;;;;;;30.10;53.00;;;;;;5088434;28;19919;-74
2022/03/25 13:07:56;;;;;;;;;;;29.70;52.90;;;;;;5086667;28;20387;-73
2022/03/25 13:10:22;;;;;;;;;;;29.20;52.90;;;;;;5088221;28;19943;-73
2022/03/25 13:12:51;;;;;;;;;;;28.70;52.90;;;;;;5087986;28;20100;-73
2022/03/25 13:15:18;;;;;;;;;;;28.30;52.60;;;;;;5088271;28;19912;-72
2022/03/25 13:17:45;;;;;;;;;;;27.90;52.30;;;;;;5086313;28;20412;-73
2022/03/25 13:20:13;;;;;;;;;;;27.30;52.00;;;;;;5088235;28;20000;-71
2022/03/25 13:22:53;;;;;;;;;;;26.90;52.50;;;;;;5087073;28;19912;-72
2022/03/25 13:25:22;;;;;;;;;;;26.50;52.40;;;;;;5087977;28;19919;-72
2022/03/25 13:27:48;;;;;;;;;;;26.20;52.80;;;;;;5087842;28;20050;-71
2022/03/25 13:30:14;;;;;;;;;;;25.90;52.90;;;;;;5087214;28;20410;-73
2022/03/25 13:32:39;;;;;;;;;;;25.50;52.70;;;;;;5087529;28;19912;-73
2022/03/25 13:35:06;;;;;;;;;;;25.30;52.90;;;;;;5088128;28;19912;-74
2022/03/25 13:37:32;;;;;;;;;;;25.20;53.10;;;;;;5087859;28;19915;-74
2022/03/25 13:39:58;;;;;;;;;;;25.10;52.90;;;;;;5087688;28;19942;-74
2022/03/25 13:42:31;;;;;;;;;;;25.00;52.70;;;;;;5086439;28;19912;-75
2022/03/25 13:45:06;;;;;;;;;;;25.00;52.80;;;;;;5087882;28;19915;-74
2022/03/25 13:47:32;;;;;;;;;;;25.10;52.70;;;;;;5088271;28;19914;-75
2022/03/25 13:50:14;;;;;;;;;;;25.20;52.70;;;;;;5088506;28;20377;-74
2022/03/25 13:52:40;;;;;;;;;;;25.10;52.50;;;;;;5087994;28;19908;-74
2022/03/25 13:55:12;;;;;;;;;;;24.80;52.40;;;;;;5087998;28;19912;-74
2022/03/25 13:57:37;;;;;;;;;;;24.40;52.30;;;;;;5086867;28;19912;-74
2022/03/25 14:00:08;;;;;;;;;;;23.90;52.50;;;;;;5088109;28;20285;-74
2022/03/25 14:02:33;;;;;;;;;;;23.60;53.30;;;;;;5087752;28;19928;-73
2022/03/25 14:04:59;;;;;;;;;;;23.30;52.70;;;;;;5088276;28;19913;-75
2022/03/25 14:07:25;;;;;;;;;;;23.00;52.70;;;;;;5087642;28;20590;-74
2022/03/25 14:09:54;;;;;;;;;;;22.90;52.70;;;;;;5087513;28;20282;-73
2022/03/25 14:12:22;;;;;;;;;;;22.70;52.50;;;;;;5088256;28;20025;-76
2022/03/25 14:14:51;;;;;;;;;;;22.60;52.20;;;;;;5086455;28;19944;-73
2022/03/25 14:17:16;;;;;;;;;;;22.50;52.30;;;;;;5086914;28;19908;-73
2022/03/25 14:19:42;;;;;;;;;;;22.40;52.30;;;;;;5088144;28;20014;-72